Аэропорт: Белгород . Белгород

ICAO: UUOB

METAR:
2019/03/26 13:00
UUOB 261300Z 27005MPS 240V310 9999 BKN040CB 08/M02 Q1008 R29/010060 NOSIG
METAR:
Информация по данной станции не доступна